sensor_id;sensor_type;location;lat;lon;timestamp;P1;durP1;ratioP1;P2;durP2;ratioP2
46755;SDS011;32506;52.826;-1.192;2022-12-18T00:00:53;9.70;;;5.22;;
46755;SDS011;32506;52.826;-1.192;2022-12-18T00:03:18;11.27;;;5.63;;
46755;SDS011;32506;52.826;-1.192;2022-12-18T00:05:50;11.70;;;6.25;;
46755;SDS011;32506;52.826;-1.192;2022-12-18T00:08:17;14.27;;;6.25;;
46755;SDS011;32506;52.826;-1.192;2022-12-18T00:10:45;10.80;;;5.93;;
46755;SDS011;32506;52.826;-1.192;2022-12-18T00:13:11;10.35;;;6.30;;
46755;SDS011;32506;52.826;-1.192;2022-12-18T00:15:37;9.65;;;5.40;;
46755;SDS011;32506;52.826;-1.192;2022-12-18T00:18:03;10.30;;;5.95;;
46755;SDS011;32506;52.826;-1.192;2022-12-18T00:20:29;10.13;;;6.07;;
46755;SDS011;32506;52.826;-1.192;2022-12-18T00:22:55;11.15;;;6.50;;
46755;SDS011;32506;52.826;-1.192;2022-12-18T00:25:20;10.48;;;6.18;;
46755;SDS011;32506;52.826;-1.192;2022-12-18T00:27:46;11.20;;;6.25;;
46755;SDS011;32506;52.826;-1.192;2022-12-18T00:30:11;11.60;;;6.15;;
46755;SDS011;32506;52.826;-1.192;2022-12-18T00:32:37;10.05;;;5.80;;
46755;SDS011;32506;52.826;-1.192;2022-12-18T00:35:02;10.70;;;5.78;;
46755;SDS011;32506;52.826;-1.192;2022-12-18T00:37:29;12.85;;;6.72;;
46755;SDS011;32506;52.826;-1.192;2022-12-18T00:39:54;9.80;;;6.03;;
46755;SDS011;32506;52.826;-1.192;2022-12-18T00:42:20;10.07;;;5.90;;
46755;SDS011;32506;52.826;-1.192;2022-12-18T00:45:04;10.77;;;6.07;;
46755;SDS011;32506;52.826;-1.192;2022-12-18T00:47:29;14.10;;;6.28;;
46755;SDS011;32506;52.826;-1.192;2022-12-18T00:49:55;10.85;;;6.03;;
46755;SDS011;32506;52.826;-1.192;2022-12-18T00:52:20;10.13;;;5.43;;
46755;SDS011;32506;52.826;-1.192;2022-12-18T00:54:46;12.15;;;5.82;;
46755;SDS011;32506;52.826;-1.192;2022-12-18T00:57:11;11.07;;;5.93;;
46755;SDS011;32506;52.826;-1.192;2022-12-18T00:59:37;11.15;;;6.53;;
46755;SDS011;32506;52.826;-1.192;2022-12-18T01:02:02;9.85;;;6.38;;
46755;SDS011;32506;52.826;-1.192;2022-12-18T01:04:27;10.35;;;5.97;;
46755;SDS011;32506;52.826;-1.192;2022-12-18T01:06:55;14.35;;;6.65;;
46755;SDS011;32506;52.826;-1.192;2022-12-18T01:09:21;12.63;;;6.05;;
46755;SDS011;32506;52.826;-1.192;2022-12-18T01:11:46;9.57;;;6.07;;
46755;SDS011;32506;52.826;-1.192;2022-12-18T01:14:12;9.85;;;6.03;;
46755;SDS011;32506;52.826;-1.192;2022-12-18T01:16:37;10.77;;;5.40;;
46755;SDS011;32506;52.826;-1.192;2022-12-18T01:19:02;12.88;;;6.97;;
46755;SDS011;32506;52.826;-1.192;2022-12-18T01:21:28;12.00;;;5.95;;
46755;SDS011;32506;52.826;-1.192;2022-12-18T01:23:54;10.88;;;6.53;;
46755;SDS011;32506;52.826;-1.192;2022-12-18T01:26:21;12.18;;;6.55;;
46755;SDS011;32506;52.826;-1.192;2022-12-18T01:28:47;14.65;;;6.75;;
46755;SDS011;32506;52.826;-1.192;2022-12-18T01:31:23;10.70;;;5.95;;
46755;SDS011;32506;52.826;-1.192;2022-12-18T01:33:51;11.50;;;6.40;;
46755;SDS011;32506;52.826;-1.192;2022-12-18T01:36:18;11.73;;;5.63;;
46755;SDS011;32506;52.826;-1.192;2022-12-18T01:38:44;11.18;;;6.47;;
46755;SDS011;32506;52.826;-1.192;2022-12-18T01:41:10;8.98;;;5.90;;
46755;SDS011;32506;52.826;-1.192;2022-12-18T01:43:44;10.80;;;5.50;;
46755;SDS011;32506;52.826;-1.192;2022-12-18T01:46:23;10.85;;;5.88;;
46755;SDS011;32506;52.826;-1.192;2022-12-18T01:48:52;10.20;;;5.63;;
46755;SDS011;32506;52.826;-1.192;2022-12-18T01:51:21;9.27;;;5.38;;
46755;SDS011;32506;52.826;-1.192;2022-12-18T01:53:47;10.75;;;5.93;;
46755;SDS011;32506;52.826;-1.192;2022-12-18T01:56:17;9.20;;;5.25;;
46755;SDS011;32506;52.826;-1.192;2022-12-18T02:01:22;12.20;;;5.88;;
46755;SDS011;32506;52.826;-1.192;2022-12-18T02:03:48;12.18;;;5.43;;
46755;SDS011;32506;52.826;-1.192;2022-12-18T02:14:45;10.32;;;5.45;;
46755;SDS011;32506;52.826;-1.192;2022-12-18T02:17:21;11.57;;;5.30;;
46755;SDS011;32506;52.826;-1.192;2022-12-18T02:27:51;12.95;;;6.03;;
46755;SDS011;32506;52.826;-1.192;2022-12-18T02:30:19;12.90;;;6.18;;
46755;SDS011;32506;52.826;-1.192;2022-12-18T02:32:47;10.23;;;5.70;;
46755;SDS011;32506;52.826;-1.192;2022-12-18T02:35:19;10.13;;;6.05;;
46755;SDS011;32506;52.826;-1.192;2022-12-18T02:37:48;13.40;;;5.97;;
46755;SDS011;32506;52.826;-1.192;2022-12-18T02:40:18;11.10;;;6.57;;
46755;SDS011;32506;52.826;-1.192;2022-12-18T02:42:46;11.52;;;6.00;;
46755;SDS011;32506;52.826;-1.192;2022-12-18T02:45:12;14.65;;;7.05;;
46755;SDS011;32506;52.826;-1.192;2022-12-18T02:47:38;11.93;;;6.72;;
46755;SDS011;32506;52.826;-1.192;2022-12-18T02:58:48;12.07;;;6.50;;
46755;SDS011;32506;52.826;-1.192;2022-12-18T03:01:22;13.00;;;6.03;;
46755;SDS011;32506;52.826;-1.192;2022-12-18T03:04:16;14.20;;;6.20;;
46755;SDS011;32506;52.826;-1.192;2022-12-18T03:07:00;11.88;;;6.32;;
46755;SDS011;32506;52.826;-1.192;2022-12-18T03:09:38;12.50;;;6.63;;
46755;SDS011;32506;52.826;-1.192;2022-12-18T03:12:56;11.75;;;6.68;;
46755;SDS011;32506;52.826;-1.192;2022-12-18T03:15:04;11.27;;;5.82;;
46755;SDS011;32506;52.826;-1.192;2022-12-18T03:17:40;11.45;;;5.78;;
46755;SDS011;32506;52.826;-1.192;2022-12-18T03:20:14;11.98;;;6.28;;
46755;SDS011;32506;52.826;-1.192;2022-12-18T03:22:43;13.68;;;7.32;;
46755;SDS011;32506;52.826;-1.192;2022-12-18T03:25:13;11.95;;;5.88;;
46755;SDS011;32506;52.826;-1.192;2022-12-18T03:27:41;13.02;;;6.45;;
46755;SDS011;32506;52.826;-1.192;2022-12-18T03:30:12;13.05;;;6.47;;
46755;SDS011;32506;52.826;-1.192;2022-12-18T03:32:40;11.93;;;6.32;;
46755;SDS011;32506;52.826;-1.192;2022-12-18T03:35:14;12.68;;;6.72;;
46755;SDS011;32506;52.826;-1.192;2022-12-18T03:37:45;13.38;;;7.38;;
46755;SDS011;32506;52.826;-1.192;2022-12-18T03:40:11;15.27;;;7.88;;
46755;SDS011;32506;52.826;-1.192;2022-12-18T03:45:13;16.50;;;8.40;;
46755;SDS011;32506;52.826;-1.192;2022-12-18T03:50:43;16.48;;;9.02;;
46755;SDS011;32506;52.826;-1.192;2022-12-18T03:53:17;17.27;;;9.80;;
46755;SDS011;32506;52.826;-1.192;2022-12-18T03:55:45;14.38;;;7.88;;
46755;SDS011;32506;52.826;-1.192;2022-12-18T03:58:13;16.27;;;8.52;;
46755;SDS011;32506;52.826;-1.192;2022-12-18T04:00:43;17.35;;;8.60;;
46755;SDS011;32506;52.826;-1.192;2022-12-18T04:03:09;14.80;;;8.73;;
46755;SDS011;32506;52.826;-1.192;2022-12-18T04:05:37;17.95;;;9.15;;
46755;SDS011;32506;52.826;-1.192;2022-12-18T04:08:03;17.33;;;8.63;;
46755;SDS011;32506;52.826;-1.192;2022-12-18T04:10:30;17.67;;;8.23;;
46755;SDS011;32506;52.826;-1.192;2022-12-18T04:12:55;15.23;;;8.85;;
46755;SDS011;32506;52.826;-1.192;2022-12-18T04:15:22;16.63;;;8.85;;
46755;SDS011;32506;52.826;-1.192;2022-12-18T04:17:49;16.52;;;9.07;;
46755;SDS011;32506;52.826;-1.192;2022-12-18T04:20:15;17.35;;;7.95;;
46755;SDS011;32506;52.826;-1.192;2022-12-18T04:22:41;15.68;;;8.65;;
46755;SDS011;32506;52.826;-1.192;2022-12-18T04:25:07;16.92;;;8.65;;
46755;SDS011;32506;52.826;-1.192;2022-12-18T04:27:33;16.88;;;8.63;;
46755;SDS011;32506;52.826;-1.192;2022-12-18T04:29:58;16.50;;;8.25;;
46755;SDS011;32506;52.826;-1.192;2022-12-18T04:32:24;16.98;;;9.15;;
46755;SDS011;32506;52.826;-1.192;2022-12-18T04:34:49;20.23;;;10.73;;
46755;SDS011;32506;52.826;-1.192;2022-12-18T04:37:15;18.30;;;9.30;;
46755;SDS011;32506;52.826;-1.192;2022-12-18T04:39:40;21.98;;;10.13;;
46755;SDS011;32506;52.826;-1.192;2022-12-18T04:42:06;18.17;;;10.82;;
46755;SDS011;32506;52.826;-1.192;2022-12-18T04:44:31;19.15;;;10.00;;
46755;SDS011;32506;52.826;-1.192;2022-12-18T04:46:57;18.50;;;9.18;;
46755;SDS011;32506;52.826;-1.192;2022-12-18T04:49:22;20.88;;;9.88;;
46755;SDS011;32506;52.826;-1.192;2022-12-18T04:51:48;17.08;;;9.75;;
46755;SDS011;32506;52.826;-1.192;2022-12-18T04:54:13;18.58;;;9.48;;
46755;SDS011;32506;52.826;-1.192;2022-12-18T04:56:38;21.75;;;11.15;;
46755;SDS011;32506;52.826;-1.192;2022-12-18T04:59:04;19.80;;;9.85;;
46755;SDS011;32506;52.826;-1.192;2022-12-18T05:01:30;19.70;;;10.77;;
46755;SDS011;32506;52.826;-1.192;2022-12-18T05:03:59;20.27;;;10.55;;
46755;SDS011;32506;52.826;-1.192;2022-12-18T05:06:25;23.20;;;11.52;;
46755;SDS011;32506;52.826;-1.192;2022-12-18T05:08:51;20.73;;;10.55;;
46755;SDS011;32506;52.826;-1.192;2022-12-18T05:11:16;20.92;;;11.45;;
46755;SDS011;32506;52.826;-1.192;2022-12-18T05:13:42;20.17;;;10.80;;
46755;SDS011;32506;52.826;-1.192;2022-12-18T05:16:09;20.50;;;10.68;;
46755;SDS011;32506;52.826;-1.192;2022-12-18T05:18:35;22.73;;;10.57;;
46755;SDS011;32506;52.826;-1.192;2022-12-18T05:21:01;20.23;;;10.43;;
46755;SDS011;32506;52.826;-1.192;2022-12-18T05:23:27;22.20;;;10.88;;
46755;SDS011;32506;52.826;-1.192;2022-12-18T05:28:23;21.58;;;11.45;;
46755;SDS011;32506;52.826;-1.192;2022-12-18T05:30:57;22.27;;;11.35;;
46755;SDS011;32506;52.826;-1.192;2022-12-18T05:33:24;23.45;;;11.65;;
46755;SDS011;32506;52.826;-1.192;2022-12-18T05:35:52;22.50;;;12.02;;
46755;SDS011;32506;52.826;-1.192;2022-12-18T05:38:19;27.20;;;12.50;;
46755;SDS011;32506;52.826;-1.192;2022-12-18T05:40:47;25.63;;;13.00;;
46755;SDS011;32506;52.826;-1.192;2022-12-18T05:43:13;23.60;;;11.45;;
46755;SDS011;32506;52.826;-1.192;2022-12-18T05:45:39;28.13;;;14.00;;
46755;SDS011;32506;52.826;-1.192;2022-12-18T05:48:06;28.10;;;13.45;;
46755;SDS011;32506;52.826;-1.192;2022-12-18T05:50:35;24.85;;;12.88;;
46755;SDS011;32506;52.826;-1.192;2022-12-18T05:53:02;27.33;;;13.60;;
46755;SDS011;32506;52.826;-1.192;2022-12-18T05:55:28;27.17;;;13.98;;
46755;SDS011;32506;52.826;-1.192;2022-12-18T05:57:53;27.73;;;13.60;;
46755;SDS011;32506;52.826;-1.192;2022-12-18T06:00:19;25.75;;;13.27;;
46755;SDS011;32506;52.826;-1.192;2022-12-18T06:02:47;25.13;;;12.95;;
46755;SDS011;32506;52.826;-1.192;2022-12-18T06:05:13;28.58;;;15.07;;
46755;SDS011;32506;52.826;-1.192;2022-12-18T06:07:38;28.40;;;14.32;;
46755;SDS011;32506;52.826;-1.192;2022-12-18T06:10:04;26.73;;;13.80;;
46755;SDS011;32506;52.826;-1.192;2022-12-18T06:12:30;29.65;;;13.60;;
46755;SDS011;32506;52.826;-1.192;2022-12-18T06:14:56;33.25;;;16.60;;
46755;SDS011;32506;52.826;-1.192;2022-12-18T06:17:21;31.60;;;14.55;;
46755;SDS011;32506;52.826;-1.192;2022-12-18T06:19:47;29.17;;;15.07;;
46755;SDS011;32506;52.826;-1.192;2022-12-18T06:22:12;28.23;;;14.25;;
46755;SDS011;32506;52.826;-1.192;2022-12-18T06:24:38;32.20;;;14.65;;
46755;SDS011;32506;52.826;-1.192;2022-12-18T06:27:03;29.27;;;15.45;;
46755;SDS011;32506;52.826;-1.192;2022-12-18T06:29:28;25.83;;;14.65;;
46755;SDS011;32506;52.826;-1.192;2022-12-18T06:31:54;29.80;;;15.13;;
46755;SDS011;32506;52.826;-1.192;2022-12-18T06:34:19;32.83;;;15.55;;
46755;SDS011;32506;52.826;-1.192;2022-12-18T06:36:45;31.77;;;14.95;;
46755;SDS011;32506;52.826;-1.192;2022-12-18T06:39:10;32.50;;;15.88;;
46755;SDS011;32506;52.826;-1.192;2022-12-18T06:41:36;31.83;;;15.27;;
46755;SDS011;32506;52.826;-1.192;2022-12-18T06:44:01;31.98;;;15.48;;
46755;SDS011;32506;52.826;-1.192;2022-12-18T06:46:27;31.88;;;15.10;;
46755;SDS011;32506;52.826;-1.192;2022-12-18T06:48:52;27.15;;;13.70;;
46755;SDS011;32506;52.826;-1.192;2022-12-18T06:51:19;29.65;;;14.77;;
46755;SDS011;32506;52.826;-1.192;2022-12-18T06:53:46;34.28;;;15.98;;
46755;SDS011;32506;52.826;-1.192;2022-12-18T06:56:12;32.25;;;15.95;;
46755;SDS011;32506;52.826;-1.192;2022-12-18T06:58:38;31.30;;;15.45;;
46755;SDS011;32506;52.826;-1.192;2022-12-18T07:01:04;31.52;;;15.88;;
46755;SDS011;32506;52.826;-1.192;2022-12-18T07:03:32;28.55;;;14.20;;
46755;SDS011;32506;52.826;-1.192;2022-12-18T07:05:57;32.72;;;15.00;;
46755;SDS011;32506;52.826;-1.192;2022-12-18T07:08:23;27.30;;;13.85;;
46755;SDS011;32506;52.826;-1.192;2022-12-18T07:10:48;32.70;;;16.27;;
46755;SDS011;32506;52.826;-1.192;2022-12-18T07:13:15;29.83;;;14.55;;
46755;SDS011;32506;52.826;-1.192;2022-12-18T07:15:41;34.17;;;15.63;;
46755;SDS011;32506;52.826;-1.192;2022-12-18T07:18:08;33.53;;;17.08;;
46755;SDS011;32506;52.826;-1.192;2022-12-18T07:20:33;30.75;;;14.52;;
46755;SDS011;32506;52.826;-1.192;2022-12-18T07:23:01;28.83;;;13.38;;
46755;SDS011;32506;52.826;-1.192;2022-12-18T07:25:27;29.38;;;15.02;;
46755;SDS011;32506;52.826;-1.192;2022-12-18T07:27:53;28.02;;;13.50;;
46755;SDS011;32506;52.826;-1.192;2022-12-18T07:30:19;28.35;;;13.80;;
46755;SDS011;32506;52.826;-1.192;2022-12-18T07:32:44;31.88;;;14.82;;
46755;SDS011;32506;52.826;-1.192;2022-12-18T07:35:10;24.35;;;13.35;;
46755;SDS011;32506;52.826;-1.192;2022-12-18T07:37:35;30.45;;;14.60;;
46755;SDS011;32506;52.826;-1.192;2022-12-18T07:40:01;27.80;;;13.00;;
46755;SDS011;32506;52.826;-1.192;2022-12-18T07:42:26;27.02;;;13.93;;
46755;SDS011;32506;52.826;-1.192;2022-12-18T07:44:58;25.67;;;13.07;;
46755;SDS011;32506;52.826;-1.192;2022-12-18T07:47:25;28.85;;;13.73;;
46755;SDS011;32506;52.826;-1.192;2022-12-18T07:49:51;25.13;;;12.45;;
46755;SDS011;32506;52.826;-1.192;2022-12-18T07:52:16;24.15;;;12.68;;
46755;SDS011;32506;52.826;-1.192;2022-12-18T07:54:45;26.50;;;12.75;;
46755;SDS011;32506;52.826;-1.192;2022-12-18T07:57:15;24.42;;;11.75;;
46755;SDS011;32506;52.826;-1.192;2022-12-18T07:59:41;27.13;;;13.32;;
46755;SDS011;32506;52.826;-1.192;2022-12-18T08:02:07;24.55;;;12.00;;
46755;SDS011;32506;52.826;-1.192;2022-12-18T08:04:35;27.42;;;12.45;;
46755;SDS011;32506;52.826;-1.192;2022-12-18T08:07:01;24.23;;;12.10;;
46755;SDS011;32506;52.826;-1.192;2022-12-18T08:09:26;22.85;;;12.77;;
46755;SDS011;32506;52.826;-1.192;2022-12-18T08:11:52;25.65;;;12.95;;
46755;SDS011;32506;52.826;-1.192;2022-12-18T08:14:17;25.95;;;11.80;;
46755;SDS011;32506;52.826;-1.192;2022-12-18T08:16:42;26.02;;;11.25;;
46755;SDS011;32506;52.826;-1.192;2022-12-18T08:19:08;25.77;;;13.07;;
46755;SDS011;32506;52.826;-1.192;2022-12-18T08:21:33;24.38;;;11.75;;
46755;SDS011;32506;52.826;-1.192;2022-12-18T08:24:00;22.98;;;11.65;;
46755;SDS011;32506;52.826;-1.192;2022-12-18T08:26:27;24.52;;;12.15;;
46755;SDS011;32506;52.826;-1.192;2022-12-18T08:28:54;23.13;;;11.70;;
46755;SDS011;32506;52.826;-1.192;2022-12-18T08:31:21;21.33;;;11.20;;
46755;SDS011;32506;52.826;-1.192;2022-12-18T08:33:48;21.00;;;11.25;;
46755;SDS011;32506;52.826;-1.192;2022-12-18T08:36:14;27.10;;;13.00;;
46755;SDS011;32506;52.826;-1.192;2022-12-18T08:38:40;22.63;;;10.88;;
46755;SDS011;32506;52.826;-1.192;2022-12-18T08:41:06;23.80;;;11.57;;
46755;SDS011;32506;52.826;-1.192;2022-12-18T08:43:36;23.23;;;11.88;;
46755;SDS011;32506;52.826;-1.192;2022-12-18T08:46:21;23.23;;;11.63;;
46755;SDS011;32506;52.826;-1.192;2022-12-18T08:48:50;23.75;;;10.65;;
46755;SDS011;32506;52.826;-1.192;2022-12-18T08:51:16;22.05;;;10.65;;
46755;SDS011;32506;52.826;-1.192;2022-12-18T08:53:42;21.00;;;11.48;;
46755;SDS011;32506;52.826;-1.192;2022-12-18T08:56:09;21.67;;;11.02;;
46755;SDS011;32506;52.826;-1.192;2022-12-18T08:58:35;24.45;;;11.95;;
46755;SDS011;32506;52.826;-1.192;2022-12-18T09:01:03;22.13;;;12.18;;
46755;SDS011;32506;52.826;-1.192;2022-12-18T09:03:30;24.10;;;12.07;;
46755;SDS011;32506;52.826;-1.192;2022-12-18T09:05:56;26.70;;;12.80;;
46755;SDS011;32506;52.826;-1.192;2022-12-18T09:08:26;25.52;;;12.93;;
46755;SDS011;32506;52.826;-1.192;2022-12-18T09:10:52;24.00;;;10.65;;
46755;SDS011;32506;52.826;-1.192;2022-12-18T09:13:17;21.52;;;11.15;;
46755;SDS011;32506;52.826;-1.192;2022-12-18T09:15:44;21.67;;;11.05;;
46755;SDS011;32506;52.826;-1.192;2022-12-18T09:18:12;23.77;;;11.45;;
46755;SDS011;32506;52.826;-1.192;2022-12-18T09:20:39;22.67;;;10.63;;
46755;SDS011;32506;52.826;-1.192;2022-12-18T09:23:05;23.42;;;11.07;;
46755;SDS011;32506;52.826;-1.192;2022-12-18T09:25:31;23.77;;;12.35;;
46755;SDS011;32506;52.826;-1.192;2022-12-18T09:28:13;24.27;;;11.93;;
46755;SDS011;32506;52.826;-1.192;2022-12-18T09:30:42;23.70;;;11.77;;
46755;SDS011;32506;52.826;-1.192;2022-12-18T09:33:10;24.92;;;12.70;;
46755;SDS011;32506;52.826;-1.192;2022-12-18T09:35:36;24.42;;;13.20;;
46755;SDS011;32506;52.826;-1.192;2022-12-18T09:38:02;22.67;;;11.82;;
46755;SDS011;32506;52.826;-1.192;2022-12-18T09:40:28;24.33;;;12.27;;
46755;SDS011;32506;52.826;-1.192;2022-12-18T09:43:00;17.63;;;9.77;;
46755;SDS011;32506;52.826;-1.192;2022-12-18T09:45:30;21.65;;;11.23;;
46755;SDS011;32506;52.826;-1.192;2022-12-18T09:48:03;21.00;;;10.30;;
46755;SDS011;32506;52.826;-1.192;2022-12-18T09:50:33;22.90;;;11.05;;
46755;SDS011;32506;52.826;-1.192;2022-12-18T09:53:09;24.15;;;11.20;;
46755;SDS011;32506;52.826;-1.192;2022-12-18T09:55:45;20.27;;;10.07;;
46755;SDS011;32506;52.826;-1.192;2022-12-18T10:00:43;21.75;;;10.95;;
46755;SDS011;32506;52.826;-1.192;2022-12-18T10:03:10;22.58;;;11.13;;
46755;SDS011;32506;52.826;-1.192;2022-12-18T10:08:08;19.83;;;10.95;;
46755;SDS011;32506;52.826;-1.192;2022-12-18T10:10:48;23.75;;;11.57;;
46755;SDS011;32506;52.826;-1.192;2022-12-18T10:21:36;21.85;;;10.80;;
46755;SDS011;32506;52.826;-1.192;2022-12-18T10:26:45;20.33;;;10.00;;
46755;SDS011;32506;52.826;-1.192;2022-12-18T10:29:15;19.70;;;10.43;;
46755;SDS011;32506;52.826;-1.192;2022-12-18T10:31:41;22.77;;;10.85;;
46755;SDS011;32506;52.826;-1.192;2022-12-18T10:34:10;19.48;;;10.40;;
46755;SDS011;32506;52.826;-1.192;2022-12-18T10:36:39;21.02;;;10.13;;
46755;SDS011;32506;52.826;-1.192;2022-12-18T10:39:15;24.38;;;11.43;;
46755;SDS011;32506;52.826;-1.192;2022-12-18T10:41:43;19.00;;;10.10;;
46755;SDS011;32506;52.826;-1.192;2022-12-18T10:46:44;19.55;;;10.43;;
46755;SDS011;32506;52.826;-1.192;2022-12-18T10:49:27;22.00;;;12.27;;
46755;SDS011;32506;52.826;-1.192;2022-12-18T10:55:01;16.75;;;9.48;;
46755;SDS011;32506;52.826;-1.192;2022-12-18T10:57:30;18.95;;;10.30;;
46755;SDS011;32506;52.826;-1.192;2022-12-18T11:00:00;18.40;;;9.30;;
46755;SDS011;32506;52.826;-1.192;2022-12-18T11:02:45;19.67;;;9.65;;
46755;SDS011;32506;52.826;-1.192;2022-12-18T11:05:24;20.33;;;10.25;;
46755;SDS011;32506;52.826;-1.192;2022-12-18T11:07:55;21.60;;;11.10;;
46755;SDS011;32506;52.826;-1.192;2022-12-18T11:10:32;19.67;;;10.68;;
46755;SDS011;32506;52.826;-1.192;2022-12-18T11:13:09;19.95;;;10.57;;
46755;SDS011;32506;52.826;-1.192;2022-12-18T11:15:42;20.98;;;10.15;;
46755;SDS011;32506;52.826;-1.192;2022-12-18T11:18:16;24.08;;;11.70;;
46755;SDS011;32506;52.826;-1.192;2022-12-18T11:20:49;19.80;;;10.45;;
46755;SDS011;32506;52.826;-1.192;2022-12-18T11:23:22;19.77;;;10.23;;
46755;SDS011;32506;52.826;-1.192;2022-12-18T11:25:59;19.83;;;10.65;;
46755;SDS011;32506;52.826;-1.192;2022-12-18T11:31:15;18.92;;;10.43;;
46755;SDS011;32506;52.826;-1.192;2022-12-18T11:36:39;21.67;;;10.65;;
46755;SDS011;32506;52.826;-1.192;2022-12-18T11:39:51;19.85;;;10.98;;
46755;SDS011;32506;52.826;-1.192;2022-12-18T11:42:02;21.00;;;11.57;;
46755;SDS011;32506;52.826;-1.192;2022-12-18T11:44:48;19.65;;;10.55;;
46755;SDS011;32506;52.826;-1.192;2022-12-18T11:50:18;21.15;;;10.00;;
46755;SDS011;32506;52.826;-1.192;2022-12-18T11:52:47;21.35;;;10.82;;
46755;SDS011;32506;52.826;-1.192;2022-12-18T12:00:36;19.60;;;9.48;;
46755;SDS011;32506;52.826;-1.192;2022-12-18T12:17:14;20.17;;;10.02;;
46755;SDS011;32506;52.826;-1.192;2022-12-18T12:20:16;21.85;;;10.68;;
46755;SDS011;32506;52.826;-1.192;2022-12-18T12:25:40;19.58;;;10.68;;
46755;SDS011;32506;52.826;-1.192;2022-12-18T12:33:41;19.27;;;10.98;;
46755;SDS011;32506;52.826;-1.192;2022-12-18T12:39:05;19.65;;;10.30;;
46755;SDS011;32506;52.826;-1.192;2022-12-18T12:41:33;21.98;;;10.82;;
46755;SDS011;32506;52.826;-1.192;2022-12-18T12:44:20;19.30;;;10.88;;
46755;SDS011;32506;52.826;-1.192;2022-12-18T12:46:49;20.23;;;10.32;;
46755;SDS011;32506;52.826;-1.192;2022-12-18T12:49:18;23.83;;;11.02;;
46755;SDS011;32506;52.826;-1.192;2022-12-18T12:51:50;24.98;;;11.75;;
46755;SDS011;32506;52.826;-1.192;2022-12-18T12:54:25;22.23;;;10.73;;
46755;SDS011;32506;52.826;-1.192;2022-12-18T12:59:56;19.40;;;10.60;;
46755;SDS011;32506;52.826;-1.192;2022-12-18T13:02:38;23.35;;;11.65;;
46755;SDS011;32506;52.826;-1.192;2022-12-18T13:08:04;24.83;;;13.30;;
46755;SDS011;32506;52.826;-1.192;2022-12-18T13:10:33;24.98;;;12.05;;
46755;SDS011;32506;52.826;-1.192;2022-12-18T13:13:02;24.50;;;12.80;;
46755;SDS011;32506;52.826;-1.192;2022-12-18T13:18:25;25.63;;;13.05;;
46755;SDS011;32506;52.826;-1.192;2022-12-18T13:25:54;27.35;;;12.75;;
46755;SDS011;32506;52.826;-1.192;2022-12-18T13:30:59;24.15;;;13.43;;
46755;SDS011;32506;52.826;-1.192;2022-12-18T13:35:53;23.95;;;12.25;;
46755;SDS011;32506;52.826;-1.192;2022-12-18T13:38:34;28.23;;;14.23;;
46755;SDS011;32506;52.826;-1.192;2022-12-18T13:41:02;27.10;;;13.48;;
46755;SDS011;32506;52.826;-1.192;2022-12-18T13:43:53;26.98;;;13.90;;
46755;SDS011;32506;52.826;-1.192;2022-12-18T13:46:23;26.00;;;13.43;;
46755;SDS011;32506;52.826;-1.192;2022-12-18T13:49:00;26.80;;;13.13;;
46755;SDS011;32506;52.826;-1.192;2022-12-18T13:51:29;25.77;;;12.88;;
46755;SDS011;32506;52.826;-1.192;2022-12-18T13:53:58;29.33;;;13.95;;
46755;SDS011;32506;52.826;-1.192;2022-12-18T13:56:30;24.15;;;14.10;;
46755;SDS011;32506;52.826;-1.192;2022-12-18T13:59:32;24.15;;;13.13;;
46755;SDS011;32506;52.826;-1.192;2022-12-18T14:01:55;24.17;;;12.68;;
46755;SDS011;32506;52.826;-1.192;2022-12-18T14:04:28;24.02;;;13.10;;
46755;SDS011;32506;52.826;-1.192;2022-12-18T14:07:01;27.38;;;13.38;;
46755;SDS011;32506;52.826;-1.192;2022-12-18T14:09:33;24.77;;;12.98;;
46755;SDS011;32506;52.826;-1.192;2022-12-18T14:12:01;23.80;;;12.73;;
46755;SDS011;32506;52.826;-1.192;2022-12-18T14:14:46;24.65;;;12.63;;
46755;SDS011;32506;52.826;-1.192;2022-12-18T14:17:15;26.65;;;13.88;;
46755;SDS011;32506;52.826;-1.192;2022-12-18T14:19:45;25.05;;;13.70;;
46755;SDS011;32506;52.826;-1.192;2022-12-18T14:22:17;27.42;;;13.82;;
46755;SDS011;32506;52.826;-1.192;2022-12-18T14:30:32;28.83;;;14.65;;
46755;SDS011;32506;52.826;-1.192;2022-12-18T14:33:05;26.10;;;13.48;;
46755;SDS011;32506;52.826;-1.192;2022-12-18T14:35:34;25.52;;;13.40;;
46755;SDS011;32506;52.826;-1.192;2022-12-18T14:40:58;28.70;;;14.73;;
46755;SDS011;32506;52.826;-1.192;2022-12-18T14:43:28;23.30;;;12.93;;
46755;SDS011;32506;52.826;-1.192;2022-12-18T14:45:56;25.85;;;13.32;;
46755;SDS011;32506;52.826;-1.192;2022-12-18T14:51:05;25.27;;;13.15;;
46755;SDS011;32506;52.826;-1.192;2022-12-18T14:53:40;23.35;;;13.48;;
46755;SDS011;32506;52.826;-1.192;2022-12-18T15:01:30;20.40;;;12.40;;
46755;SDS011;32506;52.826;-1.192;2022-12-18T15:04:02;22.60;;;12.65;;
46755;SDS011;32506;52.826;-1.192;2022-12-18T15:06:36;21.50;;;12.80;;
46755;SDS011;32506;52.826;-1.192;2022-12-18T15:09:21;23.52;;;12.93;;
46755;SDS011;32506;52.826;-1.192;2022-12-18T15:11:49;22.65;;;12.80;;
46755;SDS011;32506;52.826;-1.192;2022-12-18T15:17:03;24.45;;;13.52;;
46755;SDS011;32506;52.826;-1.192;2022-12-18T15:19:37;26.33;;;13.35;;
46755;SDS011;32506;52.826;-1.192;2022-12-18T15:22:21;20.63;;;12.00;;
46755;SDS011;32506;52.826;-1.192;2022-12-18T15:27:30;18.15;;;10.93;;
46755;SDS011;32506;52.826;-1.192;2022-12-18T15:32:34;20.85;;;11.60;;
46755;SDS011;32506;52.826;-1.192;2022-12-18T15:37:36;19.08;;;11.18;;
46755;SDS011;32506;52.826;-1.192;2022-12-18T15:40:04;20.17;;;11.68;;
46755;SDS011;32506;52.826;-1.192;2022-12-18T15:42:30;19.20;;;11.77;;
46755;SDS011;32506;52.826;-1.192;2022-12-18T15:45:14;17.10;;;9.65;;
46755;SDS011;32506;52.826;-1.192;2022-12-18T15:47:41;20.90;;;11.07;;
46755;SDS011;32506;52.826;-1.192;2022-12-18T15:50:07;17.88;;;10.25;;
46755;SDS011;32506;52.826;-1.192;2022-12-18T15:52:36;18.00;;;10.10;;
46755;SDS011;32506;52.826;-1.192;2022-12-18T15:55:13;18.13;;;9.43;;
46755;SDS011;32506;52.826;-1.192;2022-12-18T15:57:59;13.00;;;7.93;;
46755;SDS011;32506;52.826;-1.192;2022-12-18T16:00:25;17.38;;;9.18;;
46755;SDS011;32506;52.826;-1.192;2022-12-18T16:02:50;13.60;;;7.97;;
46755;SDS011;32506;52.826;-1.192;2022-12-18T16:05:16;13.15;;;7.68;;
46755;SDS011;32506;52.826;-1.192;2022-12-18T16:07:44;13.98;;;8.43;;
46755;SDS011;32506;52.826;-1.192;2022-12-18T16:10:10;12.18;;;7.75;;
46755;SDS011;32506;52.826;-1.192;2022-12-18T16:12:36;13.07;;;7.13;;
46755;SDS011;32506;52.826;-1.192;2022-12-18T16:15:02;10.73;;;7.00;;
46755;SDS011;32506;52.826;-1.192;2022-12-18T16:17:29;9.07;;;6.38;;
46755;SDS011;32506;52.826;-1.192;2022-12-18T16:19:54;11.80;;;6.65;;
46755;SDS011;32506;52.826;-1.192;2022-12-18T16:24:47;11.30;;;7.22;;
46755;SDS011;32506;52.826;-1.192;2022-12-18T16:27:14;10.80;;;6.32;;
46755;SDS011;32506;52.826;-1.192;2022-12-18T16:29:39;10.20;;;6.10;;
46755;SDS011;32506;52.826;-1.192;2022-12-18T16:32:05;9.88;;;6.57;;
46755;SDS011;32506;52.826;-1.192;2022-12-18T16:34:31;9.80;;;6.05;;
46755;SDS011;32506;52.826;-1.192;2022-12-18T16:36:59;8.57;;;5.10;;
46755;SDS011;32506;52.826;-1.192;2022-12-18T16:39:26;9.18;;;5.68;;
46755;SDS011;32506;52.826;-1.192;2022-12-18T16:41:52;10.38;;;5.57;;
46755;SDS011;32506;52.826;-1.192;2022-12-18T16:44:18;9.40;;;5.63;;
46755;SDS011;32506;52.826;-1.192;2022-12-18T16:46:43;8.75;;;4.70;;
46755;SDS011;32506;52.826;-1.192;2022-12-18T16:49:12;7.57;;;4.72;;